sensor_id;sensor_type;location;lat;lon;timestamp;P1;durP1;ratioP1;P2;durP2;ratioP2
51288;SDS011;37372;52.294;5.152;2023-08-07T00:00:03;11.63;;;2.13;;
51288;SDS011;37372;52.294;5.152;2023-08-07T00:02:41;9.75;;;2.55;;
51288;SDS011;37372;52.294;5.152;2023-08-07T00:05:09;9.60;;;2.03;;
51288;SDS011;37372;52.294;5.152;2023-08-07T00:07:38;8.63;;;2.80;;
51288;SDS011;37372;52.294;5.152;2023-08-07T00:10:04;14.85;;;3.25;;
51288;SDS011;37372;52.294;5.152;2023-08-07T00:15:23;12.82;;;3.10;;
51288;SDS011;37372;52.294;5.152;2023-08-07T00:17:49;16.50;;;3.17;;
51288;SDS011;37372;52.294;5.152;2023-08-07T00:20:16;9.45;;;2.70;;
51288;SDS011;37372;52.294;5.152;2023-08-07T00:22:49;9.73;;;2.25;;
51288;SDS011;37372;52.294;5.152;2023-08-07T00:25:19;13.55;;;2.92;;
51288;SDS011;37372;52.294;5.152;2023-08-07T00:27:44;16.42;;;3.00;;
51288;SDS011;37372;52.294;5.152;2023-08-07T00:30:11;24.08;;;3.35;;
51288;SDS011;37372;52.294;5.152;2023-08-07T00:32:46;21.58;;;4.35;;
51288;SDS011;37372;52.294;5.152;2023-08-07T00:35:14;21.02;;;4.03;;
51288;SDS011;37372;52.294;5.152;2023-08-07T00:37:45;14.93;;;3.75;;
51288;SDS011;37372;52.294;5.152;2023-08-07T00:40:11;18.50;;;3.65;;
51288;SDS011;37372;52.294;5.152;2023-08-07T00:45:28;15.65;;;3.65;;
51288;SDS011;37372;52.294;5.152;2023-08-07T00:47:57;25.38;;;4.47;;
51288;SDS011;37372;52.294;5.152;2023-08-07T00:50:24;12.95;;;4.07;;
51288;SDS011;37372;52.294;5.152;2023-08-07T00:52:54;12.85;;;3.08;;
51288;SDS011;37372;52.294;5.152;2023-08-07T00:55:23;23.00;;;5.55;;
51288;SDS011;37372;52.294;5.152;2023-08-07T00:57:53;16.30;;;3.20;;
51288;SDS011;37372;52.294;5.152;2023-08-07T01:00:21;13.32;;;3.63;;
51288;SDS011;37372;52.294;5.152;2023-08-07T01:02:55;21.13;;;3.70;;
51288;SDS011;37372;52.294;5.152;2023-08-07T01:05:25;17.15;;;3.13;;
51288;SDS011;37372;52.294;5.152;2023-08-07T01:07:56;16.15;;;3.20;;
51288;SDS011;37372;52.294;5.152;2023-08-07T01:13:24;15.40;;;3.63;;
51288;SDS011;37372;52.294;5.152;2023-08-07T01:15:55;18.40;;;3.88;;
51288;SDS011;37372;52.294;5.152;2023-08-07T01:18:25;19.77;;;3.45;;
51288;SDS011;37372;52.294;5.152;2023-08-07T01:20:53;13.07;;;3.63;;
51288;SDS011;37372;52.294;5.152;2023-08-07T01:23:19;13.05;;;3.17;;
51288;SDS011;37372;52.294;5.152;2023-08-07T01:25:45;18.08;;;3.85;;
51288;SDS011;37372;52.294;5.152;2023-08-07T01:30:44;15.23;;;3.00;;
51288;SDS011;37372;52.294;5.152;2023-08-07T01:35:43;16.83;;;3.70;;
51288;SDS011;37372;52.294;5.152;2023-08-07T01:38:15;9.98;;;2.25;;
51288;SDS011;37372;52.294;5.152;2023-08-07T01:40:41;12.93;;;2.40;;
51288;SDS011;37372;52.294;5.152;2023-08-07T01:43:11;18.30;;;3.45;;
51288;SDS011;37372;52.294;5.152;2023-08-07T01:45:39;18.25;;;2.80;;
51288;SDS011;37372;52.294;5.152;2023-08-07T01:48:04;11.05;;;2.60;;
51288;SDS011;37372;52.294;5.152;2023-08-07T01:50:30;14.68;;;2.67;;
51288;SDS011;37372;52.294;5.152;2023-08-07T01:53:01;14.80;;;3.28;;
51288;SDS011;37372;52.294;5.152;2023-08-07T01:55:27;17.55;;;3.13;;
51288;SDS011;37372;52.294;5.152;2023-08-07T01:58:00;10.82;;;3.03;;
51288;SDS011;37372;52.294;5.152;2023-08-07T02:00:27;13.02;;;2.42;;
51288;SDS011;37372;52.294;5.152;2023-08-07T02:03:01;10.75;;;2.35;;
51288;SDS011;37372;52.294;5.152;2023-08-07T02:05:28;10.65;;;2.20;;
51288;SDS011;37372;52.294;5.152;2023-08-07T02:08:05;8.68;;;2.38;;
51288;SDS011;37372;52.294;5.152;2023-08-07T02:10:33;6.90;;;2.10;;
51288;SDS011;37372;52.294;5.152;2023-08-07T02:13:03;14.95;;;3.45;;
51288;SDS011;37372;52.294;5.152;2023-08-07T02:15:29;10.60;;;2.78;;
51288;SDS011;37372;52.294;5.152;2023-08-07T02:18:05;11.52;;;2.72;;
51288;SDS011;37372;52.294;5.152;2023-08-07T02:20:33;19.67;;;3.78;;
51288;SDS011;37372;52.294;5.152;2023-08-07T02:23:05;17.30;;;3.42;;
51288;SDS011;37372;52.294;5.152;2023-08-07T02:25:32;9.20;;;2.75;;
51288;SDS011;37372;52.294;5.152;2023-08-07T02:28:10;10.23;;;2.63;;
51288;SDS011;37372;52.294;5.152;2023-08-07T02:30:36;11.77;;;2.88;;
51288;SDS011;37372;52.294;5.152;2023-08-07T02:33:11;12.90;;;2.78;;
51288;SDS011;37372;52.294;5.152;2023-08-07T02:35:38;13.13;;;3.22;;
51288;SDS011;37372;52.294;5.152;2023-08-07T02:38:11;12.00;;;3.25;;
51288;SDS011;37372;52.294;5.152;2023-08-07T02:40:39;15.82;;;4.15;;
51288;SDS011;37372;52.294;5.152;2023-08-07T02:43:09;15.18;;;3.03;;
51288;SDS011;37372;52.294;5.152;2023-08-07T02:45:36;11.23;;;3.65;;
51288;SDS011;37372;52.294;5.152;2023-08-07T02:48:12;16.02;;;2.97;;
51288;SDS011;37372;52.294;5.152;2023-08-07T02:50:41;11.23;;;2.72;;
51288;SDS011;37372;52.294;5.152;2023-08-07T02:53:12;10.10;;;2.50;;
51288;SDS011;37372;52.294;5.152;2023-08-07T02:55:39;19.45;;;3.30;;
51288;SDS011;37372;52.294;5.152;2023-08-07T02:58:12;12.95;;;2.70;;
51288;SDS011;37372;52.294;5.152;2023-08-07T03:00:39;6.18;;;2.08;;
51288;SDS011;37372;52.294;5.152;2023-08-07T03:03:16;18.85;;;3.05;;
51288;SDS011;37372;52.294;5.152;2023-08-07T03:05:58;7.38;;;2.40;;
51288;SDS011;37372;52.294;5.152;2023-08-07T03:08:23;8.50;;;2.45;;
51288;SDS011;37372;52.294;5.152;2023-08-07T03:10:51;6.28;;;2.55;;
51288;SDS011;37372;52.294;5.152;2023-08-07T03:13:19;6.68;;;2.25;;
51288;SDS011;37372;52.294;5.152;2023-08-07T03:15:45;9.60;;;2.58;;
51288;SDS011;37372;52.294;5.152;2023-08-07T03:18:18;10.25;;;2.95;;
51288;SDS011;37372;52.294;5.152;2023-08-07T03:20:45;13.10;;;2.70;;
51288;SDS011;37372;52.294;5.152;2023-08-07T03:23:16;7.38;;;2.13;;
51288;SDS011;37372;52.294;5.152;2023-08-07T03:25:44;13.67;;;2.73;;
51288;SDS011;37372;52.294;5.152;2023-08-07T03:30:52;17.27;;;3.10;;
51288;SDS011;37372;52.294;5.152;2023-08-07T03:33:24;19.08;;;2.90;;
51288;SDS011;37372;52.294;5.152;2023-08-07T03:35:50;15.40;;;3.03;;
51288;SDS011;37372;52.294;5.152;2023-08-07T03:38:23;19.83;;;3.00;;
51288;SDS011;37372;52.294;5.152;2023-08-07T03:40:51;17.67;;;3.40;;
51288;SDS011;37372;52.294;5.152;2023-08-07T03:43:23;11.70;;;2.83;;
51288;SDS011;37372;52.294;5.152;2023-08-07T03:45:54;14.73;;;2.95;;
51288;SDS011;37372;52.294;5.152;2023-08-07T03:48:30;11.18;;;2.92;;
51288;SDS011;37372;52.294;5.152;2023-08-07T03:51:06;20.95;;;3.13;;
51288;SDS011;37372;52.294;5.152;2023-08-07T03:53:42;11.15;;;3.15;;
51288;SDS011;37372;52.294;5.152;2023-08-07T03:56:08;21.27;;;3.17;;
51288;SDS011;37372;52.294;5.152;2023-08-07T03:58:34;17.98;;;3.67;;
51288;SDS011;37372;52.294;5.152;2023-08-07T04:01:00;17.23;;;3.35;;
51288;SDS011;37372;52.294;5.152;2023-08-07T04:03:26;16.20;;;4.25;;
51288;SDS011;37372;52.294;5.152;2023-08-07T04:05:52;17.85;;;4.05;;
51288;SDS011;37372;52.294;5.152;2023-08-07T04:08:27;21.38;;;4.55;;
51288;SDS011;37372;52.294;5.152;2023-08-07T04:10:57;10.02;;;3.53;;
51288;SDS011;37372;52.294;5.152;2023-08-07T04:13:28;12.05;;;3.20;;
51288;SDS011;37372;52.294;5.152;2023-08-07T04:15:54;12.10;;;3.75;;
51288;SDS011;37372;52.294;5.152;2023-08-07T04:18:26;15.02;;;3.85;;
51288;SDS011;37372;52.294;5.152;2023-08-07T04:20:55;25.17;;;4.07;;
51288;SDS011;37372;52.294;5.152;2023-08-07T04:23:34;16.70;;;3.97;;
51288;SDS011;37372;52.294;5.152;2023-08-07T04:26:00;15.52;;;3.53;;
51288;SDS011;37372;52.294;5.152;2023-08-07T04:28:29;13.23;;;3.53;;
51288;SDS011;37372;52.294;5.152;2023-08-07T04:30:55;19.38;;;3.78;;
51288;SDS011;37372;52.294;5.152;2023-08-07T04:33:32;13.43;;;3.35;;
51288;SDS011;37372;52.294;5.152;2023-08-07T04:36:01;16.10;;;3.78;;
51288;SDS011;37372;52.294;5.152;2023-08-07T04:38:29;25.35;;;4.90;;
51288;SDS011;37372;52.294;5.152;2023-08-07T04:40:55;16.55;;;4.93;;
51288;SDS011;37372;52.294;5.152;2023-08-07T04:43:31;19.33;;;4.30;;
51288;SDS011;37372;52.294;5.152;2023-08-07T04:46:03;17.45;;;3.92;;
51288;SDS011;37372;52.294;5.152;2023-08-07T04:48:32;15.38;;;4.00;;
51288;SDS011;37372;52.294;5.152;2023-08-07T04:50:58;20.80;;;5.00;;
51288;SDS011;37372;52.294;5.152;2023-08-07T04:53:34;20.88;;;4.18;;
51288;SDS011;37372;52.294;5.152;2023-08-07T04:56:04;15.90;;;3.75;;
51288;SDS011;37372;52.294;5.152;2023-08-07T04:58:36;18.27;;;4.05;;
51288;SDS011;37372;52.294;5.152;2023-08-07T05:01:02;16.65;;;3.67;;
51288;SDS011;37372;52.294;5.152;2023-08-07T05:03:36;13.55;;;3.75;;
51288;SDS011;37372;52.294;5.152;2023-08-07T05:06:04;14.68;;;3.50;;
51288;SDS011;37372;52.294;5.152;2023-08-07T05:08:36;15.73;;;4.78;;
51288;SDS011;37372;52.294;5.152;2023-08-07T05:11:03;17.45;;;4.40;;
51288;SDS011;37372;52.294;5.152;2023-08-07T05:13:39;16.02;;;3.95;;
51288;SDS011;37372;52.294;5.152;2023-08-07T05:16:06;23.48;;;5.05;;
51288;SDS011;37372;52.294;5.152;2023-08-07T05:18:41;20.30;;;4.20;;
51288;SDS011;37372;52.294;5.152;2023-08-07T05:21:08;17.20;;;4.32;;
51288;SDS011;37372;52.294;5.152;2023-08-07T05:23:38;17.20;;;4.90;;
51288;SDS011;37372;52.294;5.152;2023-08-07T05:26:17;12.50;;;3.80;;
51288;SDS011;37372;52.294;5.152;2023-08-07T05:28:45;15.13;;;4.30;;
51288;SDS011;37372;52.294;5.152;2023-08-07T05:31:12;17.70;;;4.45;;
51288;SDS011;37372;52.294;5.152;2023-08-07T05:33:45;15.93;;;4.10;;
51288;SDS011;37372;52.294;5.152;2023-08-07T05:36:15;20.58;;;4.63;;
51288;SDS011;37372;52.294;5.152;2023-08-07T05:38:47;20.88;;;4.82;;
51288;SDS011;37372;52.294;5.152;2023-08-07T05:41:14;22.25;;;4.78;;
51288;SDS011;37372;52.294;5.152;2023-08-07T05:43:48;19.63;;;4.70;;
51288;SDS011;37372;52.294;5.152;2023-08-07T05:46:16;13.75;;;4.43;;
51288;SDS011;37372;52.294;5.152;2023-08-07T05:48:46;21.73;;;5.00;;
51288;SDS011;37372;52.294;5.152;2023-08-07T05:51:16;20.40;;;4.75;;
51288;SDS011;37372;52.294;5.152;2023-08-07T05:53:53;26.10;;;4.65;;
51288;SDS011;37372;52.294;5.152;2023-08-07T05:56:23;16.35;;;4.18;;
51288;SDS011;37372;52.294;5.152;2023-08-07T05:58:49;17.00;;;4.53;;
51288;SDS011;37372;52.294;5.152;2023-08-07T06:01:18;14.02;;;4.22;;
51288;SDS011;37372;52.294;5.152;2023-08-07T06:03:46;19.70;;;5.20;;
51288;SDS011;37372;52.294;5.152;2023-08-07T06:06:14;13.98;;;4.43;;
51288;SDS011;37372;52.294;5.152;2023-08-07T06:08:54;16.70;;;4.07;;
51288;SDS011;37372;52.294;5.152;2023-08-07T06:11:30;13.02;;;3.42;;
51288;SDS011;37372;52.294;5.152;2023-08-07T06:13:56;17.17;;;5.00;;
51288;SDS011;37372;52.294;5.152;2023-08-07T06:16:21;14.55;;;3.65;;
51288;SDS011;37372;52.294;5.152;2023-08-07T06:18:54;15.20;;;5.97;;
51288;SDS011;37372;52.294;5.152;2023-08-07T06:21:20;11.55;;;3.50;;
51288;SDS011;37372;52.294;5.152;2023-08-07T06:23:55;14.05;;;4.15;;
51288;SDS011;37372;52.294;5.152;2023-08-07T06:26:22;16.58;;;4.05;;
51288;SDS011;37372;52.294;5.152;2023-08-07T06:28:57;17.02;;;4.05;;
51288;SDS011;37372;52.294;5.152;2023-08-07T06:31:23;16.10;;;3.97;;
51288;SDS011;37372;52.294;5.152;2023-08-07T06:33:57;18.00;;;4.07;;
51288;SDS011;37372;52.294;5.152;2023-08-07T06:36:25;16.70;;;3.72;;
51288;SDS011;37372;52.294;5.152;2023-08-07T06:38:54;15.20;;;4.00;;
51288;SDS011;37372;52.294;5.152;2023-08-07T06:41:20;16.15;;;4.60;;
51288;SDS011;37372;52.294;5.152;2023-08-07T06:43:56;21.77;;;5.07;;
51288;SDS011;37372;52.294;5.152;2023-08-07T06:46:25;16.13;;;4.07;;
51288;SDS011;37372;52.294;5.152;2023-08-07T06:48:59;17.48;;;4.25;;
51288;SDS011;37372;52.294;5.152;2023-08-07T06:51:25;14.80;;;3.85;;
51288;SDS011;37372;52.294;5.152;2023-08-07T06:53:59;16.15;;;3.97;;
51288;SDS011;37372;52.294;5.152;2023-08-07T06:56:29;13.82;;;3.83;;
51288;SDS011;37372;52.294;5.152;2023-08-07T06:58:59;21.88;;;4.72;;
51288;SDS011;37372;52.294;5.152;2023-08-07T07:01:25;18.05;;;3.95;;
51288;SDS011;37372;52.294;5.152;2023-08-07T07:04:03;20.23;;;3.72;;
51288;SDS011;37372;52.294;5.152;2023-08-07T07:06:29;15.88;;;4.20;;
51288;SDS011;37372;52.294;5.152;2023-08-07T07:09:01;19.42;;;5.10;;
51288;SDS011;37372;52.294;5.152;2023-08-07T07:11:28;25.33;;;5.28;;
51288;SDS011;37372;52.294;5.152;2023-08-07T07:14:03;11.90;;;4.00;;
51288;SDS011;37372;52.294;5.152;2023-08-07T07:16:35;15.30;;;4.30;;
51288;SDS011;37372;52.294;5.152;2023-08-07T07:19:06;17.65;;;4.20;;
51288;SDS011;37372;52.294;5.152;2023-08-07T07:21:34;15.27;;;3.28;;
51288;SDS011;37372;52.294;5.152;2023-08-07T07:24:03;15.05;;;3.13;;
51288;SDS011;37372;52.294;5.152;2023-08-07T07:26:28;12.60;;;3.35;;
51288;SDS011;37372;52.294;5.152;2023-08-07T07:29:08;17.02;;;4.22;;
51288;SDS011;37372;52.294;5.152;2023-08-07T07:31:34;18.55;;;4.18;;
51288;SDS011;37372;52.294;5.152;2023-08-07T07:36:45;14.25;;;3.30;;
51288;SDS011;37372;52.294;5.152;2023-08-07T07:39:11;13.77;;;4.05;;
51288;SDS011;37372;52.294;5.152;2023-08-07T07:41:37;18.40;;;3.55;;
51288;SDS011;37372;52.294;5.152;2023-08-07T07:44:10;14.10;;;4.15;;
51288;SDS011;37372;52.294;5.152;2023-08-07T07:46:36;13.93;;;4.20;;
51288;SDS011;37372;52.294;5.152;2023-08-07T07:49:04;16.58;;;5.05;;
51288;SDS011;37372;52.294;5.152;2023-08-07T07:51:36;16.13;;;3.80;;
51288;SDS011;37372;52.294;5.152;2023-08-07T07:54:06;14.90;;;3.90;;
51288;SDS011;37372;52.294;5.152;2023-08-07T07:56:55;14.88;;;4.05;;
51288;SDS011;37372;52.294;5.152;2023-08-07T07:59:22;43.53;;;5.72;;
51288;SDS011;37372;52.294;5.152;2023-08-07T08:01:50;14.45;;;4.68;;
51288;SDS011;37372;52.294;5.152;2023-08-07T08:04:16;12.75;;;3.03;;
51288;SDS011;37372;52.294;5.152;2023-08-07T08:06:42;18.02;;;3.58;;
51288;SDS011;37372;52.294;5.152;2023-08-07T08:09:08;17.48;;;3.00;;
51288;SDS011;37372;52.294;5.152;2023-08-07T08:11:42;15.00;;;3.17;;
51288;SDS011;37372;52.294;5.152;2023-08-07T08:14:10;17.77;;;4.95;;
51288;SDS011;37372;52.294;5.152;2023-08-07T08:16:43;17.40;;;4.32;;
51288;SDS011;37372;52.294;5.152;2023-08-07T08:19:21;14.82;;;4.00;;
51288;SDS011;37372;52.294;5.152;2023-08-07T08:21:48;14.05;;;4.07;;
51288;SDS011;37372;52.294;5.152;2023-08-07T08:24:16;11.32;;;3.10;;
51288;SDS011;37372;52.294;5.152;2023-08-07T08:26:46;10.57;;;2.67;;
51288;SDS011;37372;52.294;5.152;2023-08-07T08:29:19;10.00;;;2.95;;
51288;SDS011;37372;52.294;5.152;2023-08-07T08:31:47;16.83;;;3.92;;
51288;SDS011;37372;52.294;5.152;2023-08-07T08:34:22;14.57;;;4.22;;
51288;SDS011;37372;52.294;5.152;2023-08-07T08:36:50;11.93;;;3.05;;
51288;SDS011;37372;52.294;5.152;2023-08-07T08:39:22;12.77;;;3.22;;
51288;SDS011;37372;52.294;5.152;2023-08-07T08:41:52;14.48;;;2.85;;
51288;SDS011;37372;52.294;5.152;2023-08-07T08:44:21;10.00;;;3.17;;
51288;SDS011;37372;52.294;5.152;2023-08-07T08:46:49;8.02;;;2.75;;
51288;SDS011;37372;52.294;5.152;2023-08-07T08:49:28;11.63;;;3.17;;
51288;SDS011;37372;52.294;5.152;2023-08-07T08:52:13;10.57;;;2.47;;
51288;SDS011;37372;52.294;5.152;2023-08-07T08:54:43;10.85;;;2.75;;
51288;SDS011;37372;52.294;5.152;2023-08-07T08:57:11;8.52;;;3.17;;
51288;SDS011;37372;52.294;5.152;2023-08-07T08:59:40;12.52;;;2.83;;
51288;SDS011;37372;52.294;5.152;2023-08-07T09:02:08;12.63;;;3.15;;
51288;SDS011;37372;52.294;5.152;2023-08-07T09:04:39;6.50;;;2.95;;
51288;SDS011;37372;52.294;5.152;2023-08-07T09:07:08;18.70;;;3.72;;
51288;SDS011;37372;52.294;5.152;2023-08-07T09:09:37;10.45;;;2.55;;
51288;SDS011;37372;52.294;5.152;2023-08-07T09:12:06;11.25;;;2.95;;
51288;SDS011;37372;52.294;5.152;2023-08-07T09:14:41;10.75;;;2.38;;
51288;SDS011;37372;52.294;5.152;2023-08-07T09:17:09;16.27;;;2.83;;
51288;SDS011;37372;52.294;5.152;2023-08-07T09:19:40;6.30;;;2.60;;
51288;SDS011;37372;52.294;5.152;2023-08-07T09:22:08;11.82;;;2.58;;
51288;SDS011;37372;52.294;5.152;2023-08-07T09:24:34;10.63;;;2.90;;
51288;SDS011;37372;52.294;5.152;2023-08-07T09:26:59;6.38;;;2.38;;
51288;SDS011;37372;52.294;5.152;2023-08-07T09:29:33;11.32;;;3.42;;
51288;SDS011;37372;52.294;5.152;2023-08-07T09:32:07;12.05;;;2.40;;
51288;SDS011;37372;52.294;5.152;2023-08-07T09:34:42;11.70;;;2.33;;
51288;SDS011;37372;52.294;5.152;2023-08-07T09:37:08;10.68;;;2.67;;
51288;SDS011;37372;52.294;5.152;2023-08-07T09:39:40;11.23;;;2.67;;
51288;SDS011;37372;52.294;5.152;2023-08-07T09:42:12;7.07;;;2.35;;
51288;SDS011;37372;52.294;5.152;2023-08-07T09:44:42;10.77;;;2.60;;
51288;SDS011;37372;52.294;5.152;2023-08-07T09:47:14;8.35;;;2.10;;
51288;SDS011;37372;52.294;5.152;2023-08-07T09:49:49;9.35;;;2.50;;
51288;SDS011;37372;52.294;5.152;2023-08-07T09:52:20;9.35;;;2.47;;
51288;SDS011;37372;52.294;5.152;2023-08-07T09:54:45;8.18;;;2.35;;
51288;SDS011;37372;52.294;5.152;2023-08-07T09:57:16;7.10;;;2.15;;
51288;SDS011;37372;52.294;5.152;2023-08-07T09:59:43;13.55;;;2.72;;
51288;SDS011;37372;52.294;5.152;2023-08-07T10:02:17;9.50;;;2.60;;
51288;SDS011;37372;52.294;5.152;2023-08-07T10:04:46;8.88;;;2.50;;
51288;SDS011;37372;52.294;5.152;2023-08-07T10:07:18;10.55;;;2.15;;
51288;SDS011;37372;52.294;5.152;2023-08-07T10:09:45;11.02;;;1.70;;
51288;SDS011;37372;52.294;5.152;2023-08-07T10:12:17;7.43;;;2.35;;
51288;SDS011;37372;52.294;5.152;2023-08-07T10:14:44;8.50;;;2.65;;
51288;SDS011;37372;52.294;5.152;2023-08-07T10:17:11;8.77;;;2.00;;
51288;SDS011;37372;52.294;5.152;2023-08-07T10:19:38;11.73;;;3.40;;
51288;SDS011;37372;52.294;5.152;2023-08-07T10:22:04;11.18;;;2.42;;
51288;SDS011;37372;52.294;5.152;2023-08-07T10:24:49;10.13;;;2.28;;
51288;SDS011;37372;52.294;5.152;2023-08-07T10:27:23;15.23;;;3.00;;
51288;SDS011;37372;52.294;5.152;2023-08-07T10:30:04;8.23;;;2.00;;
51288;SDS011;37372;52.294;5.152;2023-08-07T10:32:39;19.05;;;3.20;;
51288;SDS011;37372;52.294;5.152;2023-08-07T10:35:09;9.00;;;2.20;;
51288;SDS011;37372;52.294;5.152;2023-08-07T10:37:44;12.40;;;2.60;;
51288;SDS011;37372;52.294;5.152;2023-08-07T10:40:10;11.10;;;2.20;;
51288;SDS011;37372;52.294;5.152;2023-08-07T10:45:24;9.10;;;2.00;;
51288;SDS011;37372;52.294;5.152;2023-08-07T10:56:15;7.50;;;1.88;;
51288;SDS011;37372;52.294;5.152;2023-08-07T10:59:13;10.38;;;3.83;;
51288;SDS011;37372;52.294;5.152;2023-08-07T11:01:41;19.55;;;3.15;;
51288;SDS011;37372;52.294;5.152;2023-08-07T11:04:12;11.30;;;3.35;;
51288;SDS011;37372;52.294;5.152;2023-08-07T11:06:49;12.20;;;2.97;;
51288;SDS011;37372;52.294;5.152;2023-08-07T11:09:16;11.05;;;2.67;;
51288;SDS011;37372;52.294;5.152;2023-08-07T11:11:49;13.25;;;3.03;;
51288;SDS011;37372;52.294;5.152;2023-08-07T11:14:20;7.57;;;2.13;;
51288;SDS011;37372;52.294;5.152;2023-08-07T11:16:48;10.13;;;2.08;;
51288;SDS011;37372;52.294;5.152;2023-08-07T11:19:29;10.68;;;2.38;;
51288;SDS011;37372;52.294;5.152;2023-08-07T11:21:58;7.88;;;2.17;;
51288;SDS011;37372;52.294;5.152;2023-08-07T11:24:26;6.80;;;1.65;;
51288;SDS011;37372;52.294;5.152;2023-08-07T11:26:52;9.27;;;2.10;;
51288;SDS011;37372;52.294;5.152;2023-08-07T11:29:27;7.88;;;1.75;;
51288;SDS011;37372;52.294;5.152;2023-08-07T11:31:58;8.18;;;1.90;;
51288;SDS011;37372;52.294;5.152;2023-08-07T11:34:24;7.90;;;2.15;;
51288;SDS011;37372;52.294;5.152;2023-08-07T11:36:51;8.30;;;2.17;;
51288;SDS011;37372;52.294;5.152;2023-08-07T11:39:26;4.05;;;1.40;;
51288;SDS011;37372;52.294;5.152;2023-08-07T11:42:21;13.17;;;2.10;;
51288;SDS011;37372;52.294;5.152;2023-08-07T11:44:57;6.72;;;1.60;;
51288;SDS011;37372;52.294;5.152;2023-08-07T11:47:30;7.88;;;2.05;;
51288;SDS011;37372;52.294;5.152;2023-08-07T11:50:01;3.90;;;1.10;;
51288;SDS011;37372;52.294;5.152;2023-08-07T11:52:33;3.40;;;1.20;;
51288;SDS011;37372;52.294;5.152;2023-08-07T11:55:02;9.40;;;1.83;;
51288;SDS011;37372;52.294;5.152;2023-08-07T11:57:29;5.93;;;1.63;;
51288;SDS011;37372;52.294;5.152;2023-08-07T11:59:59;6.50;;;1.83;;
51288;SDS011;37372;52.294;5.152;2023-08-07T12:02:26;5.47;;;1.90;;
51288;SDS011;37372;52.294;5.152;2023-08-07T12:05:01;9.48;;;1.50;;
51288;SDS011;37372;52.294;5.152;2023-08-07T12:07:27;5.00;;;1.90;;
51288;SDS011;37372;52.294;5.152;2023-08-07T12:09:56;10.57;;;2.03;;
51288;SDS011;37372;52.294;5.152;2023-08-07T12:12:27;5.67;;;2.23;;
51288;SDS011;37372;52.294;5.152;2023-08-07T12:17:45;11.80;;;2.08;;
51288;SDS011;37372;52.294;5.152;2023-08-07T12:20:11;10.60;;;1.70;;
51288;SDS011;37372;52.294;5.152;2023-08-07T12:22:46;9.40;;;2.05;;
51288;SDS011;37372;52.294;5.152;2023-08-07T12:25:14;5.90;;;1.55;;
51288;SDS011;37372;52.294;5.152;2023-08-07T12:27:39;8.25;;;1.55;;
51288;SDS011;37372;52.294;5.152;2023-08-07T12:30:05;8.32;;;1.83;;
51288;SDS011;37372;52.294;5.152;2023-08-07T12:32:32;4.55;;;1.73;;
51288;SDS011;37372;52.294;5.152;2023-08-07T12:35:06;8.20;;;1.70;;
51288;SDS011;37372;52.294;5.152;2023-08-07T12:37:38;10.65;;;1.42;;
51288;SDS011;37372;52.294;5.152;2023-08-07T12:40:13;4.40;;;1.10;;
51288;SDS011;37372;52.294;5.152;2023-08-07T12:42:49;6.03;;;1.58;;
51288;SDS011;37372;52.294;5.152;2023-08-07T12:45:15;9.32;;;1.77;;
51288;SDS011;37372;52.294;5.152;2023-08-07T12:47:41;5.22;;;1.58;;
51288;SDS011;37372;52.294;5.152;2023-08-07T12:50:08;4.00;;;1.35;;
51288;SDS011;37372;52.294;5.152;2023-08-07T12:52:36;6.65;;;2.08;;
51288;SDS011;37372;52.294;5.152;2023-08-07T12:55:09;9.02;;;1.92;;
51288;SDS011;37372;52.294;5.152;2023-08-07T12:57:41;5.93;;;2.00;;
51288;SDS011;37372;52.294;5.152;2023-08-07T13:00:13;6.30;;;1.20;;
51288;SDS011;37372;52.294;5.152;2023-08-07T13:02:42;10.85;;;2.13;;
51288;SDS011;37372;52.294;5.152;2023-08-07T13:05:14;3.65;;;1.75;;
51288;SDS011;37372;52.294;5.152;2023-08-07T13:07:43;6.38;;;1.48;;
51288;SDS011;37372;52.294;5.152;2023-08-07T13:10:16;6.75;;;1.45;;
51288;SDS011;37372;52.294;5.152;2023-08-07T13:12:45;7.03;;;2.42;;
51288;SDS011;37372;52.294;5.152;2023-08-07T13:15:17;5.60;;;1.90;;
51288;SDS011;37372;52.294;5.152;2023-08-07T13:17:45;6.22;;;1.70;;
51288;SDS011;37372;52.294;5.152;2023-08-07T13:20:14;8.43;;;1.63;;
51288;SDS011;37372;52.294;5.152;2023-08-07T13:22:41;6.80;;;1.50;;
51288;SDS011;37372;52.294;5.152;2023-08-07T13:25:16;4.88;;;1.73;;
51288;SDS011;37372;52.294;5.152;2023-08-07T13:27:44;7.13;;;2.40;;
51288;SDS011;37372;52.294;5.152;2023-08-07T13:30:18;4.95;;;1.75;;
51288;SDS011;37372;52.294;5.152;2023-08-07T13:32:44;3.92;;;1.40;;
51288;SDS011;37372;52.294;5.152;2023-08-07T13:37:52;4.93;;;1.60;;
51288;SDS011;37372;52.294;5.152;2023-08-07T13:40:23;4.72;;;2.35;;
51288;SDS011;37372;52.294;5.152;2023-08-07T13:42:50;5.75;;;1.75;;
51288;SDS011;37372;52.294;5.152;2023-08-07T13:45:22;6.32;;;1.40;;
51288;SDS011;37372;52.294;5.152;2023-08-07T13:47:49;9.32;;;1.95;;
51288;SDS011;37372;52.294;5.152;2023-08-07T13:50:21;5.05;;;1.55;;
51288;SDS011;37372;52.294;5.152;2023-08-07T13:52:48;4.80;;;1.30;;
51288;SDS011;37372;52.294;5.152;2023-08-07T13:55:21;5.65;;;1.20;;
51288;SDS011;37372;52.294;5.152;2023-08-07T13:57:49;4.37;;;1.27;;
51288;SDS011;37372;52.294;5.152;2023-08-07T14:03:00;5.30;;;1.20;;
51288;SDS011;37372;52.294;5.152;2023-08-07T14:05:25;3.05;;;1.17;;
51288;SDS011;37372;52.294;5.152;2023-08-07T14:07:50;7.00;;;1.45;;
51288;SDS011;37372;52.294;5.152;2023-08-07T14:10:26;4.40;;;1.20;;
51288;SDS011;37372;52.294;5.152;2023-08-07T14:12:53;5.45;;;1.70;;
51288;SDS011;37372;52.294;5.152;2023-08-07T14:15:27;4.95;;;1.50;;
51288;SDS011;37372;52.294;5.152;2023-08-07T14:17:53;5.97;;;2.15;;
51288;SDS011;37372;52.294;5.152;2023-08-07T14:20:29;6.47;;;1.65;;
51288;SDS011;37372;52.294;5.152;2023-08-07T14:22:57;4.18;;;1.67;;
51288;SDS011;37372;52.294;5.152;2023-08-07T14:25:25;4.53;;;1.40;;
51288;SDS011;37372;52.294;5.152;2023-08-07T14:27:51;8.73;;;2.72;;
51288;SDS011;37372;52.294;5.152;2023-08-07T14:30:22;8.57;;;2.13;;
51288;SDS011;37372;52.294;5.152;2023-08-07T14:32:52;7.43;;;1.63;;
51288;SDS011;37372;52.294;5.152;2023-08-07T14:38:10;7.28;;;1.30;;
51288;SDS011;37372;52.294;5.152;2023-08-07T14:40:37;3.80;;;1.20;;
51288;SDS011;37372;52.294;5.152;2023-08-07T14:43:06;5.13;;;1.45;;
51288;SDS011;37372;52.294;5.152;2023-08-07T14:45:33;3.28;;;1.40;;
51288;SDS011;37372;52.294;5.152;2023-08-07T14:47:58;4.90;;;1.77;;
51288;SDS011;37372;52.294;5.152;2023-08-07T14:50:33;5.55;;;1.40;;
51288;SDS011;37372;52.294;5.152;2023-08-07T14:53:01;6.82;;;1.55;;
51288;SDS011;37372;52.294;5.152;2023-08-07T14:55:32;4.88;;;2.00;;
51288;SDS011;37372;52.294;5.152;2023-08-07T14:57:58;4.35;;;1.85;;
51288;SDS011;37372;52.294;5.152;2023-08-07T15:00:34;4.18;;;1.60;;
51288;SDS011;37372;52.294;5.152;2023-08-07T15:03:00;4.78;;;1.60;;
51288;SDS011;37372;52.294;5.152;2023-08-07T15:05:39;6.82;;;1.98;;
51288;SDS011;37372;52.294;5.152;2023-08-07T15:08:05;6.65;;;1.85;;
51288;SDS011;37372;52.294;5.152;2023-08-07T15:10:34;5.55;;;2.03;;
51288;SDS011;37372;52.294;5.152;2023-08-07T15:13:01;7.72;;;2.10;;
51288;SDS011;37372;52.294;5.152;2023-08-07T15:15:33;7.05;;;1.50;;
51288;SDS011;37372;52.294;5.152;2023-08-07T15:17:58;7.90;;;1.98;;
51288;SDS011;37372;52.294;5.152;2023-08-07T15:20:35;5.72;;;2.08;;
51288;SDS011;37372;52.294;5.152;2023-08-07T15:23:03;8.43;;;2.25;;
51288;SDS011;37372;52.294;5.152;2023-08-07T15:25:34;5.47;;;1.77;;
51288;SDS011;37372;52.294;5.152;2023-08-07T15:28:05;9.25;;;2.35;;
51288;SDS011;37372;52.294;5.152;2023-08-07T15:30:45;6.50;;;2.03;;
51288;SDS011;37372;52.294;5.152;2023-08-07T15:33:15;7.78;;;2.22;;
51288;SDS011;37372;52.294;5.152;2023-08-07T15:35:43;8.27;;;2.90;;